createdAt,value
2023-03-08T00:00:16.672Z,13.90
2023-03-08T00:02:46.183Z,13.80
2023-03-08T00:05:15.456Z,13.90
2023-03-08T00:07:44.560Z,13.80
2023-03-08T00:10:14.759Z,13.90
2023-03-08T00:12:45.607Z,14.00
2023-03-08T00:15:15.028Z,13.90
2023-03-08T00:17:44.047Z,13.90
2023-03-08T00:20:15.229Z,13.80
2023-03-08T00:22:44.773Z,13.80
2023-03-08T00:25:16.615Z,13.70
2023-03-08T00:27:47.285Z,13.70
2023-03-08T00:30:19.295Z,13.60
2023-03-08T00:32:49.627Z,13.70
2023-03-08T00:35:20.208Z,13.80
2023-03-08T00:37:49.534Z,13.90
2023-03-08T00:40:19.318Z,13.90
2023-03-08T00:42:50.056Z,13.80
2023-03-08T00:45:19.399Z,13.70
2023-03-08T00:47:48.505Z,13.80
2023-03-08T00:50:17.976Z,13.80
2023-03-08T00:52:47.044Z,13.80
2023-03-08T00:55:16.198Z,13.70
2023-03-08T00:57:45.370Z,13.40
2023-03-08T01:00:17.548Z,13.40
2023-03-08T01:02:46.737Z,13.50
2023-03-08T01:05:15.967Z,13.60
2023-03-08T01:07:46.161Z,13.80
2023-03-08T01:10:15.563Z,13.80
2023-03-08T01:12:44.713Z,13.70
2023-03-08T01:15:15.945Z,13.90
2023-03-08T01:17:45.621Z,14.00
2023-03-08T01:20:15.157Z,13.80
2023-03-08T01:22:44.306Z,13.60
2023-03-08T01:25:13.519Z,13.50
2023-03-08T01:28:01.272Z,13.40
2023-03-08T01:30:32.595Z,13.40
2023-03-08T01:33:01.808Z,13.30
2023-03-08T01:35:31.113Z,13.30
2023-03-08T01:38:00.245Z,13.70
2023-03-08T01:40:29.707Z,13.70
2023-03-08T01:42:58.849Z,13.60
2023-03-08T01:46:04.805Z,13.50
2023-03-08T01:48:40.597Z,13.50
2023-03-08T01:51:17.197Z,13.70
2023-03-08T01:53:46.774Z,13.80
2023-03-08T01:56:19.501Z,13.70
2023-03-08T01:58:51.457Z,13.70
2023-03-08T02:01:21.313Z,13.70
2023-03-08T02:03:53.851Z,13.60
2023-03-08T02:06:24.379Z,13.70
2023-03-08T02:08:53.707Z,13.70
2023-03-08T02:11:23.966Z,13.60
2023-03-08T02:13:55.749Z,13.70
2023-03-08T02:16:25.424Z,13.70
2023-03-08T02:18:58.463Z,13.80
2023-03-08T02:21:28.605Z,13.90
2023-03-08T02:24:06.690Z,13.60
2023-03-08T02:26:37.540Z,13.40
2023-03-08T02:29:08.386Z,13.20
2023-03-08T02:31:37.684Z,13.10
2023-03-08T02:34:06.691Z,13.00
2023-03-08T02:36:35.840Z,13.10
2023-03-08T02:39:06.482Z,13.10
2023-03-08T02:41:36.017Z,13.20
2023-03-08T02:44:05.239Z,13.30
2023-03-08T02:46:35.845Z,13.40
2023-03-08T02:49:04.893Z,13.50
2023-03-08T02:51:34.229Z,13.70
2023-03-08T02:54:03.509Z,14.00
2023-03-08T02:56:34.262Z,14.20
2023-03-08T02:59:03.421Z,14.40
2023-03-08T03:01:32.672Z,14.40
2023-03-08T03:04:01.885Z,14.40
2023-03-08T03:06:31.248Z,14.40
2023-03-08T03:09:00.529Z,14.20
2023-03-08T03:11:30.091Z,13.90
2023-03-08T03:14:01.912Z,13.70
2023-03-08T03:16:37.681Z,13.60
2023-03-08T03:19:06.885Z,13.50
2023-03-08T03:21:36.064Z,13.40
2023-03-08T03:24:05.311Z,13.40
2023-03-08T03:26:51.566Z,13.30
2023-03-08T03:29:23.446Z,13.30
2023-03-08T03:31:58.979Z,13.20
2023-03-08T03:34:28.286Z,13.30
2023-03-08T03:36:57.456Z,13.30
2023-03-08T03:39:26.687Z,13.40
2023-03-08T03:41:55.973Z,13.40
2023-03-08T03:44:26.889Z,13.40
2023-03-08T03:46:56.154Z,13.40
2023-03-08T03:49:28.092Z,13.40
2023-03-08T03:51:57.360Z,13.50
2023-03-08T03:54:36.771Z,13.40
2023-03-08T03:57:06.483Z,13.40
2023-03-08T03:59:40.538Z,13.50
2023-03-08T04:02:09.800Z,13.40
2023-03-08T04:04:50.928Z,13.30
2023-03-08T04:07:23.903Z,13.30
2023-03-08T04:09:59.250Z,13.40
2023-03-08T04:12:28.589Z,13.50
2023-03-08T04:15:00.183Z,13.70
2023-03-08T04:17:33.231Z,13.80
2023-03-08T04:20:02.430Z,14.10
2023-03-08T04:22:35.614Z,14.10
2023-03-08T04:25:13.056Z,14.20
2023-03-08T04:27:48.823Z,14.10
2023-03-08T04:30:20.215Z,14.10
2023-03-08T04:32:49.263Z,14.10
2023-03-08T04:35:19.355Z,14.20
2023-03-08T04:37:51.637Z,14.30
2023-03-08T04:40:23.310Z,14.50
2023-03-08T04:42:58.314Z,14.60
2023-03-08T04:45:42.174Z,14.80
2023-03-08T04:48:14.634Z,14.80
2023-03-08T04:50:43.686Z,14.90
2023-03-08T04:53:13.294Z,15.00
2023-03-08T04:55:43.181Z,15.00
2023-03-08T04:58:12.328Z,15.00
2023-03-08T05:00:43.168Z,15.10
2023-03-08T05:03:13.659Z,15.10
2023-03-08T05:05:47.669Z,15.00
2023-03-08T05:08:17.771Z,14.80
2023-03-08T05:10:50.635Z,14.70
2023-03-08T05:13:20.248Z,14.60
2023-03-08T05:15:50.720Z,14.70
2023-03-08T05:18:21.678Z,14.90
2023-03-08T05:20:56.773Z,14.80
2023-03-08T05:23:28.941Z,14.70
2023-03-08T05:26:01.559Z,14.30
2023-03-08T05:28:33.242Z,14.00
2023-03-08T05:31:05.211Z,13.90
2023-03-08T05:33:38.286Z,14.00
2023-03-08T05:36:09.183Z,14.00
2023-03-08T05:38:38.910Z,14.00
2023-03-08T05:41:13.704Z,14.00
2023-03-08T05:43:44.577Z,14.10
2023-03-08T05:46:17.169Z,14.00
2023-03-08T05:48:46.993Z,14.00
2023-03-08T05:51:20.080Z,14.00
2023-03-08T05:53:49.979Z,14.10
2023-03-08T05:56:23.269Z,14.00
2023-03-08T05:59:00.265Z,14.20
2023-03-08T06:01:32.716Z,14.20
2023-03-08T06:04:11.275Z,14.30
2023-03-08T06:06:43.046Z,14.30
2023-03-08T06:09:12.516Z,14.30
2023-03-08T06:11:44.387Z,14.40
2023-03-08T06:14:13.568Z,14.60
2023-03-08T06:16:48.586Z,14.30
2023-03-08T06:19:19.350Z,14.40
2023-03-08T06:21:50.348Z,14.40
2023-03-08T06:24:19.892Z,14.30
2023-03-08T06:26:49.077Z,14.40
2023-03-08T06:29:19.311Z,14.40
2023-03-08T06:31:50.648Z,14.40
2023-03-08T06:34:20.445Z,14.50
2023-03-08T06:36:56.911Z,14.50
2023-03-08T06:39:26.122Z,14.60
2023-03-08T06:41:55.299Z,14.70
2023-03-08T06:44:24.604Z,14.80
2023-03-08T06:46:55.060Z,14.80
2023-03-08T06:49:24.732Z,14.80
2023-03-08T06:51:57.100Z,14.70
2023-03-08T06:54:26.606Z,14.70
2023-03-08T06:56:55.739Z,14.80
2023-03-08T06:59:25.541Z,14.70
2023-03-08T07:01:56.530Z,14.80
2023-03-08T07:04:26.205Z,14.90
2023-03-08T07:06:55.489Z,15.00
2023-03-08T07:09:24.667Z,15.00
2023-03-08T07:11:53.679Z,15.00
2023-03-08T07:14:22.963Z,15.10
2023-03-08T07:16:52.342Z,15.20
2023-03-08T07:19:23.021Z,15.30
2023-03-08T07:21:52.910Z,15.40
2023-03-08T07:24:22.262Z,15.50
2023-03-08T07:26:52.182Z,15.50
2023-03-08T07:29:21.153Z,15.50
2023-03-08T07:31:50.254Z,15.50
2023-03-08T07:34:19.219Z,15.60
2023-03-08T07:36:50.167Z,15.70
2023-03-08T07:39:19.325Z,15.60
2023-03-08T07:41:49.176Z,15.60
2023-03-08T07:44:18.463Z,15.70
2023-03-08T07:46:48.217Z,15.80
2023-03-08T07:49:17.424Z,15.80
2023-03-08T07:51:46.793Z,15.90
2023-03-08T07:54:17.459Z,16.00
2023-03-08T07:56:46.650Z,16.00
2023-03-08T07:59:15.699Z,16.00
2023-03-08T08:01:44.821Z,16.10
2023-03-08T08:04:13.962Z,16.10
2023-03-08T08:06:43.608Z,16.20
2023-03-08T08:09:15.641Z,16.20
2023-03-08T08:11:46.118Z,16.30
2023-03-08T08:14:15.267Z,16.30
2023-03-08T08:16:44.605Z,16.40
2023-03-08T08:19:14.880Z,16.40
2023-03-08T08:21:44.002Z,16.90
2023-03-08T08:24:13.406Z,16.80
2023-03-08T08:26:42.766Z,16.40
2023-03-08T08:29:13.281Z,16.10
2023-03-08T08:31:43.153Z,15.80
2023-03-08T08:34:12.629Z,16.00
2023-03-08T08:36:41.845Z,15.90
2023-03-08T08:39:10.869Z,15.90
2023-03-08T08:41:40.326Z,15.80
2023-03-08T08:44:09.508Z,16.00
2023-03-08T08:46:40.926Z,16.10
2023-03-08T08:49:11.991Z,16.10
2023-03-08T08:51:41.213Z,16.20
2023-03-08T08:54:10.439Z,16.20
2023-03-08T08:56:43.245Z,16.30
2023-03-08T08:59:14.850Z,16.40
2023-03-08T09:01:45.796Z,16.40
2023-03-08T09:04:17.184Z,16.60
2023-03-08T09:06:47.365Z,16.60
2023-03-08T09:09:17.532Z,16.70
2023-03-08T09:11:54.666Z,16.80
2023-03-08T09:14:26.110Z,16.70
2023-03-08T09:16:56.983Z,16.80
2023-03-08T09:19:26.180Z,16.80
2023-03-08T09:21:55.287Z,16.90
2023-03-08T09:24:24.472Z,17.00
2023-03-08T09:26:53.595Z,17.30
2023-03-08T09:29:23.182Z,17.40
2023-03-08T09:31:52.295Z,17.50
2023-03-08T09:34:23.182Z,17.50
2023-03-08T09:36:52.600Z,17.60
2023-03-08T09:39:21.818Z,17.60
2023-03-08T09:41:57.444Z,17.70
2023-03-08T09:44:57.082Z,17.70
2023-03-08T09:47:33.387Z,17.70
2023-03-08T09:50:16.065Z,17.80
2023-03-08T09:52:50.788Z,17.90
2023-03-08T09:55:29.734Z,18.00
2023-03-08T09:58:02.414Z,18.10
2023-03-08T10:00:34.229Z,18.30
2023-03-08T10:03:31.238Z,18.40
2023-03-08T10:06:11.480Z,18.50
2023-03-08T10:08:48.011Z,18.60
2023-03-08T10:11:22.646Z,18.60
2023-03-08T10:13:55.506Z,18.70
2023-03-08T10:16:27.554Z,18.70
2023-03-08T10:19:01.255Z,18.80
2023-03-08T10:21:34.493Z,18.80
2023-03-08T10:24:15.395Z,18.90
2023-03-08T10:26:45.720Z,19.00
2023-03-08T10:29:15.643Z,19.10
2023-03-08T10:31:47.392Z,19.20
2023-03-08T10:34:19.377Z,19.40
2023-03-08T10:36:52.678Z,19.50
2023-03-08T10:39:22.568Z,19.50
2023-03-08T10:41:54.626Z,19.70
2023-03-08T10:44:37.167Z,19.80
2023-03-08T10:47:20.180Z,20.00
2023-03-08T10:49:49.781Z,20.10
2023-03-08T10:52:29.252Z,20.00
2023-03-08T10:55:06.751Z,19.90
2023-03-08T10:57:36.300Z,20.00
2023-03-08T11:00:13.715Z,20.00
2023-03-08T11:02:43.116Z,20.10
2023-03-08T11:05:21.285Z,20.20
2023-03-08T11:07:56.361Z,20.20
2023-03-08T11:10:28.246Z,20.40
2023-03-08T11:13:07.324Z,20.40
2023-03-08T11:15:40.252Z,20.50
2023-03-08T11:18:19.677Z,20.50
2023-03-08T11:20:53.356Z,20.50
2023-03-08T11:23:30.447Z,20.60
2023-03-08T11:26:05.494Z,20.80
2023-03-08T11:28:48.142Z,20.70
2023-03-08T11:31:28.399Z,20.90
2023-03-08T11:34:21.884Z,21.00
2023-03-08T11:36:58.015Z,21.00
2023-03-08T11:39:34.131Z,21.00
2023-03-08T11:42:12.560Z,21.00
2023-03-08T11:45:04.995Z,21.10
2023-03-08T11:47:59.832Z,21.10
2023-03-08T11:50:33.266Z,21.00
2023-03-08T11:53:12.205Z,21.00
2023-03-08T11:55:56.562Z,21.10
2023-03-08T11:58:32.919Z,21.20
2023-03-08T12:01:29.306Z,21.20
2023-03-08T12:04:04.273Z,21.40
2023-03-08T12:06:40.297Z,21.50
2023-03-08T12:09:17.413Z,21.70
2023-03-08T12:11:52.421Z,21.70
2023-03-08T12:14:26.071Z,21.70
2023-03-08T12:17:04.821Z,21.60
2023-03-08T12:19:42.455Z,21.50
2023-03-08T12:22:26.729Z,21.50
2023-03-08T12:25:00.884Z,21.50
2023-03-08T12:27:37.744Z,21.60
2023-03-08T12:30:14.761Z,21.70
2023-03-08T12:32:45.209Z,21.70
2023-03-08T12:35:29.004Z,21.70
2023-03-08T12:37:59.827Z,21.80
2023-03-08T12:40:36.337Z,21.80
2023-03-08T12:43:10.215Z,22.00
2023-03-08T12:45:40.982Z,22.00
2023-03-08T12:48:24.184Z,21.90
2023-03-08T12:51:00.818Z,21.90
2023-03-08T12:53:41.407Z,22.00
2023-03-08T12:56:26.280Z,22.20
2023-03-08T12:58:59.270Z,22.10
2023-03-08T13:01:37.633Z,22.00
2023-03-08T13:04:09.019Z,22.10
2023-03-08T13:07:15.674Z,22.20
2023-03-08T13:09:56.236Z,22.30
2023-03-08T13:12:35.780Z,22.50
2023-03-08T13:15:23.600Z,22.50
2023-03-08T13:17:59.367Z,22.30
2023-03-08T13:20:44.464Z,22.40
2023-03-08T13:23:26.230Z,22.40
2023-03-08T13:26:19.545Z,22.60
2023-03-08T13:28:49.113Z,22.70
2023-03-08T13:31:22.588Z,22.80
2023-03-08T13:33:55.555Z,22.70
2023-03-08T13:36:26.408Z,22.70
2023-03-08T13:39:20.194Z,22.80
2023-03-08T13:41:50.481Z,22.90
2023-03-08T13:44:23.025Z,22.80
2023-03-08T13:46:54.101Z,22.80
2023-03-08T13:49:26.400Z,22.90
2023-03-08T13:51:58.142Z,22.80
2023-03-08T13:54:30.914Z,22.70
2023-03-08T13:57:02.406Z,22.80
2023-03-08T13:59:32.130Z,22.60
2023-03-08T14:02:01.515Z,22.70
2023-03-08T14:04:32.145Z,22.80
2023-03-08T14:07:02.636Z,22.80
2023-03-08T14:09:33.739Z,22.80
2023-03-08T14:12:05.773Z,22.80
2023-03-08T14:14:37.938Z,22.70
2023-03-08T14:17:07.828Z,22.70
2023-03-08T14:19:40.368Z,22.80
2023-03-08T14:22:14.709Z,22.80
2023-03-08T14:24:52.635Z,22.80
2023-03-08T14:27:39.408Z,22.70
2023-03-08T14:30:15.617Z,22.50
2023-03-08T14:33:07.138Z,22.50
2023-03-08T14:35:38.899Z,22.50
2023-03-08T14:38:15.691Z,22.40
2023-03-08T14:40:51.074Z,22.40
2023-03-08T14:43:21.873Z,22.40
2023-03-08T14:45:56.644Z,22.30
2023-03-08T14:48:30.401Z,22.30
2023-03-08T14:51:01.810Z,22.20
2023-03-08T14:53:33.443Z,22.20
2023-03-08T14:56:08.174Z,22.20
2023-03-08T14:58:41.000Z,22.20
2023-03-08T15:01:37.487Z,22.30
2023-03-08T15:04:17.804Z,22.50
2023-03-08T15:06:48.373Z,22.70
2023-03-08T15:09:19.457Z,22.90
2023-03-08T15:11:53.128Z,23.10
2023-03-08T15:14:22.172Z,22.90
2023-03-08T15:16:53.609Z,22.90
2023-03-08T15:19:23.058Z,23.10
2023-03-08T15:21:52.216Z,23.20
2023-03-08T15:24:22.095Z,23.00
2023-03-08T15:26:52.965Z,22.90
2023-03-08T15:29:27.963Z,22.60
2023-03-08T15:31:58.083Z,22.60
2023-03-08T15:34:28.522Z,22.50
2023-03-08T15:36:58.076Z,22.40
2023-03-08T15:39:27.120Z,22.10
2023-03-08T15:41:57.659Z,22.10
2023-03-08T15:44:26.829Z,22.00
2023-03-08T15:46:55.963Z,21.80
2023-03-08T15:49:25.116Z,22.00
2023-03-08T15:51:54.439Z,22.10
2023-03-08T15:54:23.520Z,22.30
2023-03-08T15:56:53.782Z,22.30
2023-03-08T15:59:24.309Z,22.50
2023-03-08T16:01:53.477Z,22.60
2023-03-08T16:04:22.963Z,22.70
2023-03-08T16:06:52.076Z,22.80
2023-03-08T16:09:21.630Z,23.00
2023-03-08T16:11:51.911Z,22.90
2023-03-08T16:14:21.036Z,22.50
2023-03-08T16:16:51.928Z,22.10
2023-03-08T16:19:21.061Z,22.00
2023-03-08T16:21:52.168Z,21.80
2023-03-08T16:24:21.348Z,21.70
2023-03-08T16:26:50.376Z,21.60
2023-03-08T16:29:19.667Z,21.60
2023-03-08T16:31:48.772Z,21.50
2023-03-08T16:34:20.207Z,21.40
2023-03-08T16:36:49.396Z,21.40
2023-03-08T16:39:18.391Z,21.30
2023-03-08T16:41:47.629Z,21.20
2023-03-08T16:44:21.714Z,21.20
2023-03-08T16:46:51.508Z,21.10
2023-03-08T16:49:23.204Z,21.00
2023-03-08T16:51:52.246Z,21.00
2023-03-08T16:54:21.454Z,20.60
2023-03-08T16:56:51.052Z,20.70
2023-03-08T16:59:20.055Z,20.60
2023-03-08T17:01:50.105Z,20.50
2023-03-08T17:04:19.762Z,20.40
2023-03-08T17:06:52.015Z,20.20
2023-03-08T17:09:21.083Z,19.90
2023-03-08T17:11:50.227Z,20.00
2023-03-08T17:14:19.367Z,19.80
2023-03-08T17:16:48.726Z,19.70
2023-03-08T17:19:17.765Z,19.60
2023-03-08T17:21:46.797Z,19.60
2023-03-08T17:24:17.773Z,19.70
2023-03-08T17:26:48.814Z,19.60
2023-03-08T17:29:18.412Z,19.50
2023-03-08T17:31:47.627Z,19.40
2023-03-08T17:34:16.824Z,19.40
2023-03-08T17:36:47.178Z,19.40
2023-03-08T17:39:18.095Z,19.30
2023-03-08T17:41:47.651Z,19.50
2023-03-08T17:44:16.949Z,19.40
2023-03-08T17:46:46.036Z,19.40
2023-03-08T17:49:17.616Z,19.30
2023-03-08T17:51:46.922Z,19.30
2023-03-08T17:54:17.889Z,19.30
2023-03-08T17:56:47.329Z,19.30
2023-03-08T17:59:18.577Z,19.30
2023-03-08T18:01:47.742Z,19.30
2023-03-08T18:04:16.845Z,19.30
2023-03-08T18:06:46.096Z,19.20
2023-03-08T18:09:17.977Z,19.00
2023-03-08T18:11:48.337Z,18.90
2023-03-08T18:14:17.571Z,18.90
2023-03-08T18:16:46.771Z,18.90
2023-03-08T18:19:15.770Z,18.70
2023-03-08T18:21:45.323Z,18.70
2023-03-08T18:24:14.818Z,18.80
2023-03-08T18:26:45.251Z,18.70
2023-03-08T18:29:14.250Z,18.80
2023-03-08T18:31:43.349Z,18.70
2023-03-08T18:34:12.571Z,18.70
2023-03-08T18:36:41.974Z,18.70
2023-03-08T18:39:14.571Z,18.60
2023-03-08T18:41:45.195Z,18.60
2023-03-08T18:44:14.603Z,18.60
2023-03-08T18:46:43.882Z,18.30
2023-03-08T18:49:14.115Z,18.20
2023-03-08T18:51:44.716Z,18.20
2023-03-08T18:54:16.139Z,18.20
2023-03-08T18:56:46.813Z,18.10
2023-03-08T18:59:16.353Z,18.00
2023-03-08T19:01:45.635Z,18.10
2023-03-08T19:04:14.928Z,18.20
2023-03-08T19:06:44.694Z,18.20
2023-03-08T19:09:16.057Z,18.10
2023-03-08T19:11:48.286Z,18.10
2023-03-08T19:14:19.040Z,18.10
2023-03-08T19:16:48.476Z,18.20
2023-03-08T19:19:18.306Z,18.20
2023-03-08T19:21:49.860Z,18.20
2023-03-08T19:24:21.418Z,18.20
2023-03-08T19:26:53.593Z,18.20
2023-03-08T19:29:24.964Z,18.30
2023-03-08T19:31:55.562Z,18.30
2023-03-08T19:34:26.333Z,18.50
2023-03-08T19:36:55.699Z,18.50
2023-03-08T19:39:26.686Z,18.40
2023-03-08T19:41:58.779Z,18.40
2023-03-08T19:44:28.316Z,18.50
2023-03-08T19:46:57.919Z,18.40
2023-03-08T19:49:29.780Z,18.30
2023-03-08T19:52:01.324Z,18.40
2023-03-08T19:54:32.192Z,18.30
2023-03-08T19:57:02.956Z,18.30
2023-03-08T19:59:32.703Z,18.30
2023-03-08T20:02:01.716Z,18.30
2023-03-08T20:04:30.783Z,18.30
2023-03-08T20:07:01.700Z,18.20
2023-03-08T20:09:31.012Z,18.20
2023-03-08T20:12:01.780Z,18.30
2023-03-08T20:14:31.185Z,18.10
2023-03-08T20:17:01.628Z,18.00
2023-03-08T20:19:32.148Z,17.90
2023-03-08T20:22:02.057Z,17.80
2023-03-08T20:24:31.381Z,18.00
2023-03-08T20:27:04.825Z,17.90
2023-03-08T20:29:35.059Z,17.70
2023-03-08T20:32:04.798Z,17.60
2023-03-08T20:34:34.154Z,17.50
2023-03-08T20:37:03.930Z,17.70
2023-03-08T20:39:33.656Z,17.50
2023-03-08T20:42:04.442Z,17.50
2023-03-08T20:44:33.512Z,17.40
2023-03-08T20:47:03.325Z,17.20
2023-03-08T20:49:32.518Z,17.20
2023-03-08T20:52:01.903Z,17.30
2023-03-08T20:54:31.206Z,17.30
2023-03-08T20:57:00.405Z,17.20
2023-03-08T20:59:31.052Z,17.30
2023-03-08T21:02:00.362Z,17.20
2023-03-08T21:04:29.447Z,17.30
2023-03-08T21:06:58.590Z,17.30
2023-03-08T21:09:27.705Z,17.30
2023-03-08T21:11:57.148Z,17.20
2023-03-08T21:14:26.757Z,17.40
2023-03-08T21:16:57.352Z,17.60
2023-03-08T21:19:26.910Z,17.60
2023-03-08T21:21:56.013Z,17.70
2023-03-08T21:24:25.304Z,17.60
2023-03-08T21:26:54.579Z,17.50
2023-03-08T21:29:25.849Z,17.40
2023-03-08T21:31:56.550Z,17.30
2023-03-08T21:34:25.850Z,17.20
2023-03-08T21:36:55.085Z,17.10
2023-03-08T21:39:26.679Z,17.20
2023-03-08T21:41:57.265Z,17.20
2023-03-08T21:44:27.350Z,17.20
2023-03-08T21:46:57.865Z,17.20
2023-03-08T21:49:29.339Z,17.20
2023-03-08T21:51:59.948Z,17.20
2023-03-08T21:54:30.622Z,17.00
2023-03-08T21:56:59.928Z,16.90
2023-03-08T21:59:29.519Z,16.90
2023-03-08T22:02:00.795Z,16.90
2023-03-08T22:04:30.286Z,16.90
2023-03-08T22:06:59.340Z,17.00
2023-03-08T22:09:29.384Z,17.00
2023-03-08T22:11:59.521Z,17.00
2023-03-08T22:14:28.859Z,17.00
2023-03-08T22:17:00.608Z,17.00
2023-03-08T22:19:29.809Z,17.20
2023-03-08T22:22:00.929Z,17.30
2023-03-08T22:24:32.290Z,17.30
2023-03-08T22:27:01.707Z,17.40
2023-03-08T22:29:30.961Z,17.30
2023-03-08T22:32:01.633Z,17.30
2023-03-08T22:34:30.796Z,17.20
2023-03-08T22:37:00.588Z,17.10
2023-03-08T22:39:29.677Z,17.20
2023-03-08T22:41:58.818Z,17.10
2023-03-08T22:44:28.039Z,16.90
2023-03-08T22:46:57.185Z,17.10
2023-03-08T22:49:27.670Z,17.20
2023-03-08T22:51:56.720Z,17.00
2023-03-08T22:54:25.858Z,17.00
2023-03-08T22:56:55.204Z,17.00
2023-03-08T22:59:25.833Z,17.00
2023-03-08T23:01:55.160Z,17.00
2023-03-08T23:04:24.327Z,17.00
2023-03-08T23:06:54.919Z,17.00
2023-03-08T23:09:23.969Z,17.20
2023-03-08T23:11:53.051Z,17.30
2023-03-08T23:14:22.082Z,17.40
2023-03-08T23:16:51.524Z,17.50
2023-03-08T23:19:22.944Z,17.50
2023-03-08T23:21:53.425Z,17.70
2023-03-08T23:24:22.624Z,17.80
2023-03-08T23:26:51.730Z,17.80
2023-03-08T23:29:20.877Z,17.90
2023-03-08T23:31:49.949Z,17.90
2023-03-08T23:34:18.980Z,18.00
2023-03-08T23:36:48.160Z,18.10
2023-03-08T23:39:18.583Z,18.20
2023-03-08T23:41:47.659Z,18.20
2023-03-08T23:44:18.619Z,18.30
2023-03-08T23:46:47.694Z,18.50
2023-03-08T23:49:17.692Z,18.60
2023-03-08T23:51:47.171Z,18.60
2023-03-08T23:54:17.611Z,18.60
2023-03-08T23:56:46.722Z,18.70
2023-03-08T23:59:18.654Z,18.80
